Time;durP1;ratioP1;P1;durP2;ratioP2;P2;SDS_P1;SDS_P2;PMS_P1;PMS_P2;Temp;Humidity;BMP_temperature;BMP_pressure;BME280_temperature;BME280_humidity;BME280_pressure;Samples;Min_cycle;Max_cycle;Signal;HPM_P1;HPM_P2
2021/12/13 00:02:08;;;;;;;7.73;4.00;;;9.80;99.90;;;;;;5017904;28;20444;-85
2021/12/13 00:04:39;;;;;;;6.20;3.87;;;9.90;99.90;;;;;;5034507;28;20427;-85
2021/12/13 00:07:26;;;;;;;4.73;3.50;;;9.90;99.90;;;;;;5018219;28;20405;-85
2021/12/13 00:09:55;;;;;;;7.30;4.60;;;9.90;99.90;;;;;;5033863;28;20506;-86
2021/12/13 00:12:34;;;;;;;6.60;4.70;;;10.00;99.90;;;;;;5017458;28;20506;-86
2021/12/13 00:15:04;;;;;;;10.00;5.50;;;10.00;99.90;;;;;;5017165;28;20471;-86
2021/12/13 00:17:38;;;;;;;6.90;4.77;;;9.80;99.90;;;;;;5017300;28;20474;-86
2021/12/13 00:20:19;;;;;;;6.53;4.77;;;9.90;99.90;;;;;;5017126;28;20443;-84
2021/12/13 00:22:51;;;;;;;9.30;4.70;;;9.90;99.90;;;;;;5016849;28;20419;-86
2021/12/13 00:25:21;;;;;;;7.27;4.63;;;9.90;99.90;;;;;;5016768;28;20458;-85
2021/12/13 00:27:50;;;;;;;8.60;5.60;;;10.00;99.90;;;;;;5016987;28;20981;-86
2021/12/13 00:30:47;;;;;;;9.83;5.80;;;10.00;99.90;;;;;;5017665;28;20444;-86
2021/12/13 00:33:26;;;;;;;9.97;5.93;;;10.00;99.90;;;;;;5033304;28;20923;-84
2021/12/13 00:35:57;;;;;;;8.20;5.97;;;10.00;99.90;;;;;;5017402;28;20637;-85
2021/12/13 00:38:27;;;;;;;8.77;5.83;;;10.10;99.90;;;;;;5016610;28;20462;-86
2021/12/13 00:41:03;;;;;;;9.87;6.20;;;10.00;99.90;;;;;;5019928;28;20454;-85
2021/12/13 00:43:35;;;;;;;11.40;5.27;;;10.00;99.90;;;;;;5051625;28;20517;-86
2021/12/13 00:46:05;;;;;;;10.97;5.23;;;9.90;99.90;;;;;;5043999;28;20429;-86
2021/12/13 00:48:34;;;;;;;7.60;5.30;;;9.90;99.90;;;;;;5035783;28;20898;-85
2021/12/13 00:51:14;;;;;;;7.80;5.17;;;9.90;99.90;;;;;;5034649;28;20544;-86
2021/12/13 00:53:44;;;;;;;11.53;5.07;;;9.90;99.90;;;;;;5034704;28;20469;-85
2021/12/13 00:56:47;;;;;;;8.23;4.77;;;9.90;99.90;;;;;;5034732;28;20411;-85
2021/12/13 00:59:29;;;;;;;7.73;3.80;;;10.00;99.90;;;;;;5033191;28;20446;-85
2021/12/13 01:01:59;;;;;;;7.87;5.20;;;10.00;99.90;;;;;;5031154;28;20856;-84
2021/12/13 01:04:56;;;;;;;6.67;3.90;;;10.00;99.90;;;;;;5031346;28;20415;-84
2021/12/13 01:07:34;;;;;;;6.77;3.50;;;10.00;99.90;;;;;;5031560;28;20418;-85
2021/12/13 01:10:37;;;;;;;6.70;3.57;;;10.00;99.90;;;;;;5032318;28;20513;-85
2021/12/13 01:13:07;;;;;;;7.40;3.80;;;10.00;99.90;;;;;;5031135;28;20415;-84
2021/12/13 01:15:41;;;;;;;5.13;3.20;;;10.00;99.90;;;;;;5031171;28;20517;-85
2021/12/13 01:19:25;;;;;;;5.10;3.00;;;10.00;99.90;;;;;;5030980;28;20987;-85
2021/12/13 01:22:31;;;;;;;4.67;2.90;;;10.00;99.90;;;;;;5032054;28;20430;-85
2021/12/13 01:27:32;;;;;;;4.47;2.80;;;10.00;99.90;;;;;;5032595;28;20414;-84
2021/12/13 01:29:57;;;;;;;5.03;3.30;;;10.10;99.90;;;;;;5030702;28;20938;-84
2021/12/13 01:32:26;;;;;;;4.97;3.10;;;10.10;99.90;;;;;;5031080;28;20419;-85
2021/12/13 01:34:51;;;;;;;5.60;3.07;;;10.10;99.90;;;;;;5030959;28;20200;-84
2021/12/13 01:37:18;;;;;;;7.77;3.17;;;10.10;99.90;;;;;;5031056;28;20421;-84
2021/12/13 01:39:47;;;;;;;5.50;2.63;;;10.10;99.90;;;;;;5031703;28;20172;-85
2021/12/13 01:42:23;;;;;;;3.63;2.20;;;10.10;99.90;;;;;;5030901;28;20411;-85
2021/12/13 01:44:53;;;;;;;5.00;3.03;;;10.10;99.90;;;;;;5032385;28;20765;-84
2021/12/13 01:47:23;;;;;;;3.67;2.40;;;10.10;99.90;;;;;;5034774;28;20421;-85
2021/12/13 01:49:53;;;;;;;4.23;2.30;;;10.10;99.90;;;;;;5034280;28;20419;-85
2021/12/13 01:52:27;;;;;;;4.40;3.13;;;10.10;99.90;;;;;;5059200;22;20586;-82
2021/12/13 01:54:56;;;;;;;4.77;2.90;;;10.10;99.90;;;;;;5047262;28;20470;-81
2021/12/13 01:57:38;;;;;;;5.70;2.93;;;10.10;99.90;;;;;;5057037;28;20791;-82
2021/12/13 02:00:18;;;;;;;3.70;2.87;;;10.10;99.90;;;;;;5056688;28;20933;-82
2021/12/13 02:02:50;;;;;;;5.90;3.47;;;10.20;99.90;;;;;;5056790;28;20442;-83
2021/12/13 02:05:26;;;;;;;8.10;4.03;;;10.20;99.90;;;;;;5056347;28;20430;-81
2021/12/13 02:08:00;;;;;;;4.10;3.13;;;10.20;99.90;;;;;;5041150;28;20449;-82
2021/12/13 02:10:41;;;;;;;5.00;3.33;;;10.20;99.90;;;;;;5040339;28;20435;-81
2021/12/13 02:13:20;;;;;;;4.40;3.40;;;10.20;99.90;;;;;;5037629;28;20470;-82
2021/12/13 02:18:37;;;;;;;7.33;2.73;;;10.10;99.90;;;;;;5048971;28;20425;-82
2021/12/13 02:21:11;;;;;;;4.80;2.30;;;10.10;99.90;;;;;;5044053;28;20950;-83
2021/12/13 02:23:42;;;;;;;3.60;2.20;;;10.10;99.90;;;;;;5050412;28;20506;-81
2021/12/13 02:26:09;;;;;;;3.63;2.50;;;10.00;99.90;;;;;;5055055;28;20419;-82
2021/12/13 02:28:38;;;;;;;5.23;2.90;;;9.90;99.90;;;;;;5054910;28;20429;-83
2021/12/13 02:31:14;;;;;;;4.13;2.60;;;9.80;99.90;;;;;;5054253;28;20423;-81
2021/12/13 02:34:05;;;;;;;4.20;2.57;;;9.80;99.90;;;;;;5054651;28;20797;-83
2021/12/13 02:36:41;;;;;;;5.73;3.00;;;9.80;99.90;;;;;;5054314;28;20795;-83
2021/12/13 02:39:21;;;;;;;4.73;3.23;;;9.70;99.90;;;;;;5054505;28;20492;-81
2021/12/13 02:41:47;;;;;;;5.10;2.77;;;9.70;99.90;;;;;;5053979;28;20449;-83
2021/12/13 02:44:26;;;;;;;5.00;2.90;;;9.70;99.90;;;;;;5054543;28;20425;-81
2021/12/13 02:47:00;;;;;;;4.87;3.20;;;9.60;99.90;;;;;;5054101;28;20440;-81
2021/12/13 02:49:26;;;;;;;5.00;3.03;;;9.70;99.90;;;;;;5053356;28;20419;-83
2021/12/13 02:51:59;;;;;;;5.40;3.27;;;9.70;99.90;;;;;;5053641;28;20795;-81
2021/12/13 02:54:32;;;;;;;5.87;3.13;;;9.80;99.90;;;;;;5054106;28;20991;-81
2021/12/13 02:57:06;;;;;;;4.87;2.90;;;9.80;99.90;;;;;;5057219;28;20437;-83
2021/12/13 02:59:36;;;;;;;6.37;4.10;;;9.80;99.90;;;;;;5063904;28;20448;-82
2021/12/13 03:02:09;;;;;;;6.20;3.10;;;9.80;99.90;;;;;;5063928;28;20480;-83
2021/12/13 03:04:35;;;;;;;4.90;3.20;;;9.80;99.90;;;;;;5063820;28;20422;-83
2021/12/13 03:07:10;;;;;;;8.03;3.53;;;9.90;99.90;;;;;;5065718;28;20473;-83
2021/12/13 03:09:38;;;;;;;5.43;3.37;;;9.90;99.90;;;;;;5064466;28;20429;-83
2021/12/13 03:12:09;;;;;;;4.60;3.23;;;9.90;99.90;;;;;;5064112;28;20448;-82
2021/12/13 03:14:42;;;;;;;5.43;2.97;;;9.80;99.90;;;;;;5064299;28;20469;-82
2021/12/13 03:17:26;;;;;;;7.97;3.30;;;9.70;99.90;;;;;;5064093;28;20509;-83
2021/12/13 03:20:13;;;;;;;7.70;3.73;;;9.80;99.90;;;;;;5063217;28;20509;-81
2021/12/13 03:22:47;;;;;;;4.70;3.17;;;9.80;99.90;;;;;;5063027;28;20449;-83
2021/12/13 03:25:35;;;;;;;5.27;3.23;;;9.90;99.90;;;;;;5063454;28;20483;-82
2021/12/13 03:28:19;;;;;;;7.47;3.17;;;9.90;99.90;;;;;;5062350;28;20414;-83
2021/12/13 03:31:01;;;;;;;5.33;2.90;;;9.90;99.90;;;;;;5062716;28;20843;-83
2021/12/13 03:33:34;;;;;;;5.93;2.90;;;9.90;99.90;;;;;;5061962;28;20454;-83
2021/12/13 03:36:06;;;;;;;7.73;2.90;;;9.90;99.90;;;;;;5061178;28;20454;-82
2021/12/13 03:38:49;;;;;;;8.73;3.40;;;10.00;99.90;;;;;;5061324;28;20415;-81
2021/12/13 03:41:20;;;;;;;6.53;3.53;;;9.90;99.90;;;;;;5061239;28;20932;-81
2021/12/13 03:44:01;;;;;;;5.50;3.10;;;9.90;99.90;;;;;;5060306;28;20415;-82
2021/12/13 03:46:30;;;;;;;6.33;3.30;;;9.90;99.90;;;;;;5060872;28;20418;-83
2021/12/13 03:48:59;;;;;;;8.17;2.77;;;10.00;99.90;;;;;;5061584;28;20418;-83
2021/12/13 03:51:29;;;;;;;4.30;2.90;;;9.90;99.90;;;;;;5064094;28;20525;-83
2021/12/13 03:53:57;;;;;;;5.60;3.30;;;10.00;99.90;;;;;;5062667;28;20921;-83
2021/12/13 03:56:28;;;;;;;7.30;3.13;;;10.00;99.90;;;;;;5061295;28;20496;-83
2021/12/13 03:58:59;;;;;;;6.73;3.60;;;10.00;99.90;;;;;;5062252;28;20429;-81
2021/12/13 04:01:28;;;;;;;7.53;2.87;;;10.10;99.90;;;;;;5061285;28;20429;-83
2021/12/13 04:03:57;;;;;;;4.27;2.73;;;10.00;99.90;;;;;;5060538;28;20444;-83
2021/12/13 04:06:23;;;;;;;5.80;2.70;;;10.10;99.90;;;;;;5060292;28;20421;-83
2021/12/13 04:08:55;;;;;;;4.70;2.77;;;10.10;99.90;;;;;;5059811;28;20419;-82
2021/12/13 04:11:23;;;;;;;4.27;2.77;;;10.00;99.90;;;;;;5057852;28;20417;-83
2021/12/13 04:14:04;;;;;;;4.50;2.67;;;10.00;99.90;;;;;;5058650;28;20422;-81
2021/12/13 04:17:01;;;;;;;6.00;2.93;;;10.10;99.90;;;;;;5057910;28;20430;-82
2021/12/13 04:19:30;;;;;;;6.00;3.07;;;10.10;99.90;;;;;;5056924;28;20477;-82
2021/12/13 04:22:03;;;;;;;5.97;2.60;;;10.00;99.90;;;;;;5057087;28;21026;-82
2021/12/13 04:24:49;;;;;;;5.63;3.20;;;10.10;99.90;;;;;;5056534;28;20418;-81
2021/12/13 04:27:53;;;;;;;6.20;2.20;;;10.10;99.90;;;;;;5056922;28;20740;-82
2021/12/13 04:30:22;;;;;;;5.13;3.13;;;10.10;99.90;;;;;;5054252;28;20425;-82
2021/12/13 04:32:55;;;;;;;4.50;2.13;;;10.10;99.90;;;;;;5056433;28;20504;-83
2021/12/13 04:35:23;;;;;;;3.60;1.93;;;10.20;99.90;;;;;;5056242;28;20914;-81
2021/12/13 04:37:52;;;;;;;4.17;2.20;;;10.20;99.90;;;;;;5055509;28;20418;-81
2021/12/13 04:40:30;;;;;;;3.63;2.37;;;10.30;99.90;;;;;;5055064;28;20410;-83
2021/12/13 04:43:02;;;;;;;4.40;2.07;;;10.30;99.90;;;;;;5055740;28;20438;-83
2021/12/13 04:45:29;;;;;;;4.47;2.17;;;10.30;99.90;;;;;;5055512;28;20418;-81
2021/12/13 04:48:06;;;;;;;4.57;2.30;;;10.30;99.90;;;;;;5055368;28;20960;-81
2021/12/13 04:50:38;;;;;;;4.80;2.27;;;10.30;99.90;;;;;;5054568;28;20429;-81
2021/12/13 04:53:04;;;;;;;5.43;3.07;;;10.30;99.90;;;;;;5054386;28;20508;-81
2021/12/13 04:55:37;;;;;;;3.90;2.30;;;10.30;99.90;;;;;;5053930;28;20454;-81
2021/12/13 04:58:09;;;;;;;4.53;2.80;;;10.30;99.90;;;;;;5053697;28;20740;-83
2021/12/13 05:00:39;;;;;;;3.83;2.00;;;10.30;99.90;;;;;;5053870;28;20505;-81
2021/12/13 05:03:08;;;;;;;4.13;2.80;;;10.40;99.90;;;;;;5054089;28;20458;-82
2021/12/13 05:05:35;;;;;;;3.90;2.00;;;10.30;99.90;;;;;;5054174;28;20866;-81
2021/12/13 05:08:02;;;;;;;4.03;2.60;;;10.30;99.90;;;;;;5053718;28;20445;-81
2021/12/13 05:10:30;;;;;;;4.63;2.50;;;10.30;99.90;;;;;;5053336;28;20433;-81
2021/12/13 05:13:14;;;;;;;3.60;2.30;;;10.40;99.90;;;;;;5053663;28;20468;-82
2021/12/13 05:15:49;;;;;;;4.33;2.50;;;10.30;99.90;;;;;;5053437;28;21020;-81
2021/12/13 05:18:20;;;;;;;3.83;2.47;;;10.30;99.90;;;;;;5053841;28;20647;-81
2021/12/13 05:20:48;;;;;;;5.03;2.47;;;10.30;99.90;;;;;;5056246;28;20426;-81
2021/12/13 05:23:20;;;;;;;6.47;3.00;;;10.30;99.90;;;;;;5057219;28;20445;-81
2021/12/13 05:25:53;;;;;;;3.90;2.40;;;10.30;99.90;;;;;;5057207;28;20655;-82
2021/12/13 05:28:23;;;;;;;4.40;2.47;;;10.20;99.90;;;;;;5057964;28;20437;-81
2021/12/13 05:30:57;;;;;;;4.70;2.83;;;10.30;99.90;;;;;;5057205;28;20429;-82
2021/12/13 05:33:26;;;;;;;4.20;2.53;;;10.20;99.90;;;;;;5057694;28;20446;-81
2021/12/13 05:35:56;;;;;;;5.33;2.90;;;10.20;99.90;;;;;;5057352;28;20489;-82
2021/12/13 05:38:28;;;;;;;5.00;2.53;;;10.20;99.90;;;;;;5056495;28;20418;-82
2021/12/13 05:40:59;;;;;;;5.43;2.13;;;10.20;99.90;;;;;;5057131;28;20835;-82
2021/12/13 05:43:32;;;;;;;4.20;2.40;;;10.20;99.90;;;;;;5057009;28;20503;-82
2021/12/13 05:46:19;;;;;;;5.00;2.10;;;10.10;99.90;;;;;;5056638;28;20525;-81
2021/12/13 05:48:54;;;;;;;3.23;1.97;;;10.10;99.90;;;;;;5056231;28;20430;-81
2021/12/13 05:51:23;;;;;;;4.70;2.20;;;10.00;99.90;;;;;;5056040;28;20445;-82
2021/12/13 05:53:58;;;;;;;7.60;3.13;;;10.10;99.90;;;;;;5056897;28;20504;-81
2021/12/13 05:56:29;;;;;;;4.70;2.70;;;10.00;99.90;;;;;;5055757;28;20471;-82
2021/12/13 05:59:08;;;;;;;4.17;2.27;;;10.00;99.90;;;;;;5056327;28;20417;-80
2021/12/13 06:02:11;;;;;;;4.43;2.23;;;10.00;99.90;;;;;;5056494;28;20430;-82
2021/12/13 06:04:55;;;;;;;3.60;2.57;;;10.00;99.90;;;;;;5055516;28;20418;-82
2021/12/13 06:07:24;;;;;;;5.40;3.23;;;10.00;99.90;;;;;;5056240;28;20899;-81
2021/12/13 06:09:55;;;;;;;4.50;2.80;;;10.00;99.90;;;;;;5055750;28;20932;-80
2021/12/13 06:12:27;;;;;;;4.80;3.00;;;10.00;99.90;;;;;;5055595;28;20795;-83
2021/12/13 06:14:55;;;;;;;4.20;2.80;;;10.10;99.90;;;;;;5054797;28;20808;-82
2021/12/13 06:17:29;;;;;;;5.50;2.50;;;10.10;99.90;;;;;;5055172;28;20425;-81
2021/12/13 06:19:55;;;;;;;5.10;2.13;;;10.10;99.90;;;;;;5055058;28;20417;-81
2021/12/13 06:22:24;;;;;;;4.17;2.20;;;10.00;99.90;;;;;;5055411;28;20534;-83
2021/12/13 06:25:16;;;;;;;3.97;2.37;;;10.10;99.90;;;;;;5054728;28;20179;-81
2021/12/13 06:27:44;;;;;;;3.77;2.47;;;10.00;99.90;;;;;;5055029;28;21132;-81
2021/12/13 06:30:17;;;;;;;4.00;2.70;;;10.10;99.90;;;;;;5054077;28;20457;-81
2021/12/13 06:33:11;;;;;;;4.67;2.53;;;10.00;99.90;;;;;;5055078;28;20443;-81
2021/12/13 06:35:53;;;;;;;3.33;2.10;;;10.00;99.90;;;;;;5053016;28;20462;-82
2021/12/13 06:38:19;;;;;;;3.90;2.20;;;10.00;99.90;;;;;;5055116;28;20421;-81
2021/12/13 06:40:55;;;;;;;4.53;2.37;;;10.10;99.90;;;;;;5054175;28;20406;-81
2021/12/13 06:43:38;;;;;;;4.70;2.60;;;10.10;99.90;;;;;;5054160;28;20210;-81
2021/12/13 06:46:23;;;;;;;5.67;2.83;;;10.10;99.90;;;;;;5058811;28;20454;-83
2021/12/13 06:49:00;;;;;;;3.60;2.10;;;10.10;99.90;;;;;;5061512;28;20422;-83
2021/12/13 06:51:44;;;;;;;3.80;1.73;;;10.20;99.90;;;;;;5061864;28;20861;-83
2021/12/13 06:54:14;;;;;;;3.90;2.20;;;10.00;99.90;;;;;;5061369;28;20484;-82
2021/12/13 06:56:42;;;;;;;4.33;2.00;;;10.00;99.90;;;;;;5061695;28;20508;-82
2021/12/13 06:59:10;;;;;;;3.97;1.70;;;10.10;99.90;;;;;;5060683;28;20451;-80
2021/12/13 07:01:38;;;;;;;3.70;2.13;;;10.10;99.90;;;;;;5060948;28;20434;-83
2021/12/13 07:04:10;;;;;;;3.50;2.20;;;10.10;99.90;;;;;;5061180;28;20410;-83
2021/12/13 07:06:38;;;;;;;3.73;2.10;;;10.10;99.90;;;;;;5060605;28;20429;-83
2021/12/13 07:09:13;;;;;;;4.77;2.50;;;10.10;99.90;;;;;;5060475;28;20410;-80
2021/12/13 07:11:40;;;;;;;7.87;1.93;;;10.10;99.90;;;;;;5061127;28;20437;-82
2021/12/13 07:14:13;;;;;;;5.10;2.60;;;10.20;99.90;;;;;;5060129;28;20954;-83
2021/12/13 07:16:42;;;;;;;6.90;2.03;;;10.10;99.90;;;;;;5059798;28;20414;-82
2021/12/13 07:19:18;;;;;;;3.50;2.07;;;10.10;99.90;;;;;;5058042;28;20437;-82
2021/12/13 07:21:58;;;;;;;2.87;1.53;;;10.10;99.90;;;;;;5057110;28;20957;-82
2021/12/13 07:24:43;;;;;;;3.73;1.83;;;10.10;99.90;;;;;;5037008;28;20519;-81
2021/12/13 07:27:41;;;;;;;3.37;1.97;;;10.00;99.90;;;;;;5044144;28;20509;-81
2021/12/13 07:30:16;;;;;;;3.27;1.73;;;10.00;99.90;;;;;;5056021;28;20410;-80
2021/12/13 07:32:58;;;;;;;3.87;1.80;;;10.00;99.90;;;;;;5031675;28;20451;-81
2021/12/13 07:35:40;;;;;;;4.30;1.70;;;10.10;99.90;;;;;;5032778;28;20844;-81
2021/12/13 07:38:06;;;;;;;7.00;2.50;;;10.10;99.90;;;;;;5060761;28;20490;-81
2021/12/13 07:40:46;;;;;;;3.10;2.20;;;10.10;99.90;;;;;;5062138;28;20453;-81
2021/12/13 07:43:21;;;;;;;4.93;2.57;;;10.20;99.90;;;;;;5060109;28;20199;-80
2021/12/13 07:45:58;;;;;;;4.00;2.00;;;10.20;99.90;;;;;;5060769;28;20420;-80
2021/12/13 07:48:27;;;;;;;2.50;1.50;;;10.20;99.90;;;;;;5060071;28;20410;-81
2021/12/13 07:51:07;;;;;;;4.53;1.77;;;10.20;99.90;;;;;;5059323;28;20437;-82
2021/12/13 07:53:47;;;;;;;3.77;1.63;;;10.20;99.90;;;;;;5059878;28;20528;-81
2021/12/13 07:56:21;;;;;;;3.67;1.57;;;10.30;99.90;;;;;;5040961;22;20960;-89
2021/12/13 07:58:57;;;;;;;4.40;1.77;;;10.30;99.90;;;;;;5012031;28;20998;-88
2021/12/13 08:01:26;;;;;;;4.93;1.30;;;10.30;99.90;;;;;;5013061;28;20400;-88
2021/12/13 08:03:56;;;;;;;2.73;1.47;;;10.20;99.90;;;;;;5013194;28;20404;-90
2021/12/13 08:06:28;;;;;;;3.70;1.70;;;10.30;99.90;;;;;;4995838;28;20456;-87
2021/12/13 08:08:59;;;;;;;3.00;1.50;;;10.40;99.90;;;;;;4992385;28;20503;-87
2021/12/13 08:11:39;;;;;;;2.67;1.40;;;10.40;99.90;;;;;;4972790;28;20928;-88
2021/12/13 08:14:05;;;;;;;2.83;1.67;;;10.40;99.90;;;;;;4976914;28;20413;-87
2021/12/13 08:16:51;;;;;;;4.07;1.70;;;10.40;99.90;;;;;;4993333;28;20440;-89
2021/12/13 08:19:22;;;;;;;3.13;1.50;;;10.40;99.90;;;;;;4992033;28;20538;-88
2021/12/13 08:21:55;;;;;;;2.67;1.10;;;10.40;99.90;;;;;;4993379;28;20947;-87
2021/12/13 08:24:38;;;;;;;3.03;1.37;;;10.40;99.90;;;;;;4992173;28;20409;-88
2021/12/13 08:27:16;;;;;;;2.40;1.20;;;10.50;99.90;;;;;;4991995;28;20500;-88
2021/12/13 08:29:43;;;;;;;2.30;1.10;;;10.50;99.90;;;;;;4992001;28;20419;-88
2021/12/13 08:32:27;;;;;;;3.70;1.50;;;10.50;99.90;;;;;;4993104;28;20421;-88
2021/12/13 08:34:59;;;;;;;2.97;1.60;;;10.50;99.90;;;;;;4991919;28;20556;-88
2021/12/13 08:37:29;;;;;;;2.70;1.40;;;10.60;99.90;;;;;;4991931;28;20424;-89
2021/12/13 08:40:18;;;;;;;2.80;1.43;;;10.60;99.90;;;;;;4991919;28;20807;-89
2021/12/13 08:42:45;;;;;;;3.47;1.20;;;10.60;99.90;;;;;;4991698;28;20413;-88
2021/12/13 08:45:19;;;;;;;3.80;1.53;;;10.60;99.90;;;;;;4991774;28;20448;-89
2021/12/13 08:47:55;;;;;;;4.20;1.63;;;10.70;99.90;;;;;;4992954;28;20492;-88
2021/12/13 08:50:48;;;;;;;3.67;1.77;;;10.80;99.90;;;;;;4991561;28;20817;-88
2021/12/13 08:53:31;;;;;;;3.17;1.20;;;10.80;99.90;;;;;;4991373;28;21025;-88
2021/12/13 08:56:11;;;;;;;3.30;1.33;;;10.80;99.90;;;;;;4992521;28;20472;-88
2021/12/13 08:58:52;;;;;;;3.37;1.80;;;10.80;99.90;;;;;;4991669;28;20417;-88
2021/12/13 09:01:20;;;;;;;3.33;1.50;;;10.90;99.90;;;;;;4992650;28;20408;-88
2021/12/13 09:03:52;;;;;;;4.37;2.30;;;10.90;99.90;;;;;;4991564;28;20518;-88
2021/12/13 09:06:18;;;;;;;2.80;1.30;;;10.90;99.90;;;;;;4991592;28;20531;-88
2021/12/13 09:08:55;;;;;;;2.40;1.23;;;10.80;99.90;;;;;;4992802;28;20511;-88
2021/12/13 09:11:36;;;;;;;3.60;1.27;;;10.80;99.90;;;;;;4985202;28;20302;-88
2021/12/13 09:14:13;;;;;;;3.37;1.77;;;10.80;99.90;;;;;;4988968;28;20425;-87
2021/12/13 09:16:39;;;;;;;3.10;1.60;;;10.80;99.90;;;;;;4991350;28;20469;-88
2021/12/13 09:19:43;;;;;;;3.00;1.60;;;10.80;99.90;;;;;;4991353;28;20515;-88
2021/12/13 09:22:15;;;;;;;3.33;1.40;;;10.80;99.90;;;;;;4961471;28;20456;-89
2021/12/13 09:24:47;;;;;;;2.60;1.40;;;10.80;99.90;;;;;;4973115;28;20446;-87
2021/12/13 09:27:25;;;;;;;3.80;1.60;;;10.80;99.90;;;;;;4972102;28;20483;-89
2021/12/13 09:30:00;;;;;;;3.47;1.90;;;10.80;99.90;;;;;;4991072;28;20429;-87
2021/12/13 09:32:35;;;;;;;3.47;1.70;;;10.90;99.90;;;;;;4991463;28;20546;-86
2021/12/13 09:35:25;;;;;;;2.90;1.40;;;11.00;99.90;;;;;;4990841;28;20515;-85
2021/12/13 09:37:52;;;;;;;3.10;1.60;;;10.90;99.90;;;;;;4991999;28;20420;-85
2021/12/13 09:40:25;;;;;;;3.60;1.80;;;10.90;99.90;;;;;;5011902;28;20420;-86
2021/12/13 09:42:54;;;;;;;2.73;1.50;;;11.00;99.90;;;;;;5010557;28;20423;-85
2021/12/13 09:45:42;;;;;;;5.70;1.50;;;11.00;99.90;;;;;;5011900;28;20436;-85
2021/12/13 09:48:29;;;;;;;3.20;1.83;;;11.10;99.90;;;;;;5010768;28;20459;-83
2021/12/13 09:51:01;;;;;;;3.60;2.10;;;11.10;99.90;;;;;;5011671;28;20511;-85
2021/12/13 09:53:34;;;;;;;3.20;2.00;;;11.20;99.90;;;;;;5010611;28;20452;-86
2021/12/13 09:56:06;;;;;;;4.40;2.17;;;11.20;99.90;;;;;;5010472;28;20570;-85
2021/12/13 09:58:42;;;;;;;3.27;2.30;;;11.20;99.90;;;;;;5011943;28;20840;-85
2021/12/13 10:01:17;;;;;;;3.00;1.87;;;11.30;99.90;;;;;;5010466;28;20427;-85
2021/12/13 10:03:46;;;;;;;3.10;1.57;;;11.30;99.90;;;;;;5010539;28;20844;-85
2021/12/13 10:06:14;;;;;;;3.53;1.50;;;11.30;99.90;;;;;;5012459;28;20451;-85
2021/12/13 10:08:50;;;;;;;4.60;1.90;;;11.20;99.90;;;;;;5014081;28;20426;-85
2021/12/13 10:11:24;;;;;;;4.10;1.93;;;11.20;99.90;;;;;;5013976;28;20427;-84
2021/12/13 10:13:51;;;;;;;3.67;2.00;;;11.30;99.90;;;;;;5015234;28;20810;-85
2021/12/13 10:16:21;;;;;;;5.20;2.10;;;11.10;99.90;;;;;;5015212;28;20537;-85
2021/12/13 10:18:51;;;;;;;3.20;2.00;;;11.10;99.90;;;;;;5013911;28;20949;-85
2021/12/13 10:21:22;;;;;;;5.63;2.20;;;11.10;99.90;;;;;;5013669;28;20813;-85
2021/12/13 10:23:54;;;;;;;3.43;2.13;;;11.20;99.90;;;;;;5014011;28;20424;-85
2021/12/13 10:26:22;;;;;;;3.80;2.37;;;11.20;99.90;;;;;;5015310;28;20949;-85
2021/12/13 10:28:54;;;;;;;3.53;1.90;;;11.30;99.90;;;;;;5013603;28;20505;-85
2021/12/13 10:31:34;;;;;;;3.80;2.30;;;11.30;99.90;;;;;;5014779;28;20930;-85
2021/12/13 10:34:06;;;;;;;3.20;2.00;;;11.30;99.90;;;;;;5015149;28;20763;-85
2021/12/13 10:36:32;;;;;;;3.47;2.33;;;11.30;99.90;;;;;;5013608;28;20951;-85
2021/12/13 10:39:04;;;;;;;4.40;2.50;;;11.30;99.90;;;;;;5013555;28;20428;-85
2021/12/13 10:41:37;;;;;;;4.10;2.50;;;11.30;99.90;;;;;;5013701;28;20424;-85
2021/12/13 10:44:08;;;;;;;4.77;2.67;;;11.30;99.90;;;;;;5014722;28;20419;-85
2021/12/13 10:46:38;;;;;;;4.53;2.47;;;11.40;99.90;;;;;;5013618;28;20440;-85
2021/12/13 10:49:12;;;;;;;3.77;2.50;;;11.50;99.90;;;;;;5013186;28;20443;-85
2021/12/13 10:51:41;;;;;;;3.33;2.20;;;11.50;99.90;;;;;;5013462;28;20790;-84
2021/12/13 10:54:17;;;;;;;3.20;2.10;;;11.50;99.90;;;;;;5013041;28;20446;-85
2021/12/13 10:56:51;;;;;;;3.63;2.13;;;11.60;99.90;;;;;;5013214;28;20596;-85
2021/12/13 10:59:23;;;;;;;4.10;2.30;;;11.70;99.90;;;;;;5012772;28;20466;-85
2021/12/13 11:01:52;;;;;;;3.90;2.50;;;11.80;99.90;;;;;;5013191;28;20947;-85
2021/12/13 11:04:26;;;;;;;3.47;2.57;;;11.80;99.90;;;;;;5013053;28;20459;-84
2021/12/13 11:06:52;;;;;;;4.07;2.60;;;11.80;99.90;;;;;;5013121;28;20860;-85
2021/12/13 11:09:22;;;;;;;4.50;2.33;;;11.90;99.90;;;;;;5012761;28;20423;-85
2021/12/13 11:12:20;;;;;;;4.30;3.10;;;12.00;99.90;;;;;;5013138;28;20470;-83
2021/12/13 11:14:49;;;;;;;3.90;2.53;;;12.10;99.90;;;;;;5013985;28;20459;-85
2021/12/13 11:17:18;;;;;;;4.23;2.40;;;12.10;99.90;;;;;;5013159;28;20416;-85
2021/12/13 11:19:48;;;;;;;5.37;3.13;;;12.10;99.90;;;;;;5012357;28;20986;-85
2021/12/13 11:22:18;;;;;;;4.37;2.47;;;12.00;99.90;;;;;;5014073;28;20776;-85
2021/12/13 11:24:48;;;;;;;4.90;2.77;;;12.10;99.90;;;;;;5013812;28;20443;-86
2021/12/13 11:27:19;;;;;;;3.80;2.50;;;12.10;99.90;;;;;;5013994;28;20419;-85
2021/12/13 11:29:46;;;;;;;3.70;2.50;;;12.30;99.90;;;;;;5013570;28;20416;-85
2021/12/13 11:32:39;;;;;;;3.80;2.70;;;12.50;99.90;;;;;;5012612;28;20432;-85
2021/12/13 11:35:11;;;;;;;6.07;2.90;;;12.70;99.90;;;;;;5012291;28;20542;-85
2021/12/13 11:37:48;;;;;;;4.30;2.47;;;12.80;99.90;;;;;;5013826;28;20408;-85
2021/12/13 11:40:20;;;;;;;4.13;2.40;;;12.90;99.90;;;;;;5012162;28;20918;-85
2021/12/13 11:42:46;;;;;;;4.90;2.70;;;12.60;99.90;;;;;;5012396;28;20455;-86
2021/12/13 11:45:45;;;;;;;3.60;2.37;;;12.60;99.90;;;;;;5012287;28;20471;-85
2021/12/13 11:48:32;;;;;;;4.20;2.83;;;12.60;99.90;;;;;;5012899;28;20272;-83
2021/12/13 11:51:30;;;;;;;3.20;1.90;;;12.40;99.90;;;;;;5012264;28;20859;-85
2021/12/13 11:54:40;;;;;;;3.20;2.00;;;12.50;99.90;;;;;;5012450;28;20436;-85
2021/12/13 11:57:22;;;;;;;3.40;2.17;;;12.50;99.90;;;;;;5020129;28;20436;-85
2021/12/13 12:00:29;;;;;;;5.07;2.10;;;12.40;99.90;;;;;;5012135;28;20432;-84
2021/12/13 12:03:36;;;;;;;3.10;2.07;;;12.50;99.90;;;;;;5012091;28;20836;-85
2021/12/13 12:06:49;;;;;;;3.90;2.17;;;12.50;99.90;;;;;;5012004;28;20432;-83
2021/12/13 12:09:39;;;;;;;3.50;1.90;;;12.50;99.90;;;;;;5011954;28;20454;-84
2021/12/13 12:12:29;;;;;;;2.53;1.40;;;12.50;99.90;;;;;;5012103;28;20424;-85
2021/12/13 12:15:00;;;;;;;3.30;1.67;;;12.50;99.90;;;;;;5011736;28;20895;-85
2021/12/13 12:17:27;;;;;;;2.73;1.40;;;12.30;99.90;;;;;;5012034;28;20749;-85
2021/12/13 12:19:53;;;;;;;3.20;1.20;;;12.30;99.90;;;;;;5011582;28;20420;-84
2021/12/13 12:22:21;;;;;;;2.50;1.13;;;12.30;99.90;;;;;;5012003;28;20419;-85
2021/12/13 12:24:50;;;;;;;3.07;1.47;;;12.30;99.90;;;;;;5011901;28;20440;-84
2021/12/13 12:27:36;;;;;;;3.00;1.40;;;12.20;99.90;;;;;;5012103;28;20428;-83
2021/12/13 12:30:20;;;;;;;3.10;1.00;;;12.20;99.90;;;;;;5011922;28;20427;-85
2021/12/13 12:32:54;;;;;;;2.23;0.90;;;12.20;99.90;;;;;;5014910;28;20420;-86
2021/12/13 12:35:24;;;;;;;2.60;1.00;;;12.00;99.90;;;;;;5011309;28;20467;-84
2021/12/13 12:38:04;;;;;;;3.43;1.23;;;11.90;99.90;;;;;;5011490;28;20590;-85
2021/12/13 12:40:59;;;;;;;2.40;1.10;;;11.80;99.90;;;;;;5011074;28;20477;-84
2021/12/13 12:43:30;;;;;;;2.67;1.10;;;11.70;99.90;;;;;;5011316;28;20426;-85
2021/12/13 12:46:00;;;;;;;2.60;1.20;;;11.60;99.90;;;;;;5011310;28;20448;-85
2021/12/13 12:48:51;;;;;;;2.43;1.20;;;11.50;99.90;;;;;;5011328;28;20427;-84
2021/12/13 12:51:30;;;;;;;2.50;1.27;;;11.50;99.90;;;;;;5008847;28;20428;-83
2021/12/13 12:54:22;;;;;;;2.40;1.20;;;11.60;99.90;;;;;;4980110;28;20436;-84
2021/12/13 12:56:55;;;;;;;2.53;1.30;;;11.60;99.90;;;;;;5009060;28;20448;-85
2021/12/13 12:59:31;;;;;;;3.90;1.50;;;11.60;99.90;;;;;;4991425;28;20413;-86
2021/12/13 13:02:11;;;;;;;2.83;1.57;;;11.60;99.90;;;;;;4987800;28;20441;-86
2021/12/13 13:04:41;;;;;;;2.50;1.40;;;11.60;99.90;;;;;;4991558;28;20927;-86
2021/12/13 13:07:18;;;;;;;2.70;1.40;;;11.60;99.90;;;;;;4993122;28;20511;-86
2021/12/13 13:09:49;;;;;;;2.40;1.00;;;11.50;99.90;;;;;;5008510;28;20438;-85
2021/12/13 13:12:24;;;;;;;2.87;1.10;;;11.50;99.90;;;;;;5011755;28;20416;-85
2021/12/13 13:14:58;;;;;;;2.60;1.00;;;11.50;99.90;;;;;;5012489;28;20835;-85
2021/12/13 13:17:27;;;;;;;2.60;1.00;;;11.40;99.90;;;;;;5011539;28;20506;-86
2021/12/13 13:19:57;;;;;;;2.37;1.00;;;11.40;99.90;;;;;;5011397;28;20450;-87
2021/12/13 13:22:30;;;;;;;4.37;1.30;;;11.40;99.90;;;;;;5011448;28;20412;-85
2021/12/13 13:25:00;;;;;;;2.60;1.20;;;11.40;99.90;;;;;;5011461;28;20526;-86
2021/12/13 13:27:28;;;;;;;2.30;1.00;;;11.40;99.90;;;;;;5011742;28;20452;-85
2021/12/13 13:29:55;;;;;;;2.50;1.30;;;11.50;99.90;;;;;;5012641;28;20434;-86
2021/12/13 13:32:22;;;;;;;2.30;1.00;;;11.50;99.90;;;;;;5011591;28;20416;-85
2021/12/13 13:34:53;;;;;;;2.30;1.07;;;11.50;99.90;;;;;;5011135;28;20843;-85
2021/12/13 13:37:26;;;;;;;3.77;1.17;;;11.50;99.90;;;;;;5011368;28;20418;-84